createdAt,value
2023-05-09T00:00:39.084Z,2.80
2023-05-09T00:03:05.793Z,2.90
2023-05-09T00:05:32.249Z,2.67
2023-05-09T00:07:58.711Z,3.10
2023-05-09T00:10:25.124Z,3.03
2023-05-09T00:12:52.139Z,3.33
2023-05-09T00:15:19.080Z,2.72
2023-05-09T00:17:45.939Z,2.90
2023-05-09T00:20:12.926Z,2.55
2023-05-09T00:22:42.687Z,2.90
2023-05-09T00:25:09.760Z,3.10
2023-05-09T00:27:36.596Z,3.22
2023-05-09T00:30:04.995Z,2.78
2023-05-09T00:32:32.813Z,2.97
2023-05-09T00:34:59.331Z,2.90
2023-05-09T00:37:26.714Z,3.22
2023-05-09T00:39:53.140Z,2.90
2023-05-09T00:42:19.611Z,3.20
2023-05-09T00:44:46.468Z,3.00
2023-05-09T00:47:12.956Z,3.17
2023-05-09T00:49:39.405Z,3.30
2023-05-09T00:52:06.273Z,3.10
2023-05-09T00:54:33.091Z,3.22
2023-05-09T00:57:00.370Z,3.42
2023-05-09T00:59:27.643Z,3.10
2023-05-09T01:01:54.111Z,3.30
2023-05-09T01:04:20.582Z,3.20
2023-05-09T01:07:06.206Z,3.30
2023-05-09T01:09:57.791Z,3.03
2023-05-09T01:12:42.543Z,3.08
2023-05-09T01:15:13.801Z,3.20
2023-05-09T01:18:01.204Z,3.30
2023-05-09T01:20:37.859Z,3.22
2023-05-09T01:23:45.210Z,3.10
2023-05-09T01:26:26.044Z,3.38
2023-05-09T01:29:19.361Z,3.40
2023-05-09T01:31:49.107Z,3.80
2023-05-09T01:34:18.027Z,3.42
2023-05-09T01:36:46.973Z,3.40
2023-05-09T01:39:13.960Z,3.47
2023-05-09T01:41:40.537Z,3.50
2023-05-09T01:44:10.643Z,3.30
2023-05-09T01:46:38.109Z,3.38
2023-05-09T01:49:07.580Z,3.00
2023-05-09T01:51:36.545Z,3.15
2023-05-09T01:54:05.156Z,3.63
2023-05-09T01:56:32.290Z,3.78
2023-05-09T01:59:00.888Z,3.47
2023-05-09T02:01:28.263Z,3.78
2023-05-09T02:03:56.098Z,3.88
2023-05-09T02:06:24.129Z,3.85
2023-05-09T02:08:51.159Z,3.95
2023-05-09T02:11:17.642Z,3.53
2023-05-09T02:13:44.131Z,3.58
2023-05-09T02:16:12.125Z,3.70
2023-05-09T02:18:38.673Z,3.92
2023-05-09T02:21:06.218Z,3.83
2023-05-09T02:23:32.643Z,3.95
2023-05-09T02:25:59.445Z,3.65
2023-05-09T02:28:27.235Z,3.90
2023-05-09T02:30:57.071Z,4.40
2023-05-09T02:33:24.128Z,3.28
2023-05-09T02:35:51.853Z,4.05
2023-05-09T02:38:19.186Z,4.43
2023-05-09T02:40:47.519Z,3.92
2023-05-09T02:43:15.344Z,4.43
2023-05-09T02:45:42.084Z,3.88
2023-05-09T02:48:09.362Z,3.92
2023-05-09T02:50:38.349Z,3.70
2023-05-09T02:53:06.109Z,4.03
2023-05-09T02:55:33.601Z,3.83
2023-05-09T02:58:12.902Z,4.40
2023-05-09T03:00:42.523Z,4.25
2023-05-09T03:03:09.265Z,4.38
2023-05-09T03:05:35.886Z,4.15
2023-05-09T03:08:02.354Z,4.20
2023-05-09T03:10:29.047Z,4.57
2023-05-09T03:12:55.764Z,4.43
2023-05-09T03:15:23.035Z,4.22
2023-05-09T03:17:49.627Z,4.38
2023-05-09T03:20:16.184Z,4.22
2023-05-09T03:22:42.606Z,4.35
2023-05-09T03:25:11.103Z,5.03
2023-05-09T03:27:38.489Z,4.30
2023-05-09T03:30:08.343Z,4.35
2023-05-09T03:32:35.077Z,4.60
2023-05-09T03:35:01.596Z,4.18
2023-05-09T03:37:28.078Z,4.35
2023-05-09T03:39:54.606Z,4.10
2023-05-09T03:42:22.223Z,4.32
2023-05-09T03:44:51.044Z,4.80
2023-05-09T03:47:21.429Z,4.22
2023-05-09T03:49:48.892Z,4.65
2023-05-09T03:52:18.429Z,4.38
2023-05-09T03:54:45.434Z,4.55
2023-05-09T03:57:11.966Z,4.90
2023-05-09T03:59:38.493Z,4.28
2023-05-09T04:02:05.023Z,4.40
2023-05-09T04:04:31.565Z,4.50
2023-05-09T04:06:58.658Z,4.68
2023-05-09T04:09:25.830Z,4.95
2023-05-09T04:11:53.190Z,4.78
2023-05-09T04:14:19.773Z,4.72
2023-05-09T04:16:46.298Z,4.53
2023-05-09T04:19:12.923Z,4.53
2023-05-09T04:21:39.374Z,4.00
2023-05-09T04:24:06.312Z,4.68
2023-05-09T04:26:40.929Z,5.30
2023-05-09T04:29:11.229Z,4.85
2023-05-09T04:31:38.107Z,5.05
2023-05-09T04:34:06.580Z,4.78
2023-05-09T04:36:34.848Z,4.43
2023-05-09T04:39:02.034Z,4.07
2023-05-09T04:41:29.391Z,4.75
2023-05-09T04:43:55.888Z,4.93
2023-05-09T04:46:25.980Z,5.07
2023-05-09T04:48:53.369Z,4.65
2023-05-09T04:51:20.407Z,4.40
2023-05-09T04:53:46.990Z,4.90
2023-05-09T04:56:15.136Z,5.22
2023-05-09T04:58:42.296Z,4.53
2023-05-09T05:01:10.502Z,4.80
2023-05-09T05:03:38.029Z,5.00
2023-05-09T05:06:06.503Z,4.88
2023-05-09T05:08:33.655Z,4.70
2023-05-09T05:11:00.516Z,4.78
2023-05-09T05:13:27.944Z,4.70
2023-05-09T05:15:58.733Z,4.75
2023-05-09T05:18:25.220Z,4.35
2023-05-09T05:20:51.779Z,4.88
2023-05-09T05:23:18.435Z,5.22
2023-05-09T05:25:45.467Z,4.50
2023-05-09T05:28:13.324Z,4.97
2023-05-09T05:30:41.574Z,5.15
2023-05-09T05:33:08.070Z,5.15
2023-05-09T05:35:34.633Z,5.13
2023-05-09T05:38:01.455Z,5.05
2023-05-09T05:40:28.173Z,5.10
2023-05-09T05:42:56.047Z,4.82
2023-05-09T05:45:23.716Z,4.82
2023-05-09T05:47:54.401Z,4.72
2023-05-09T05:50:22.614Z,5.07
2023-05-09T05:52:49.220Z,4.82
2023-05-09T05:55:18.004Z,5.25
2023-05-09T05:57:44.759Z,4.93
2023-05-09T06:00:15.145Z,4.90
2023-05-09T06:02:49.387Z,5.70
2023-05-09T06:05:30.914Z,4.25
2023-05-09T06:07:57.560Z,5.03
2023-05-09T06:10:24.017Z,5.05
2023-05-09T06:12:50.521Z,4.63
2023-05-09T06:15:17.838Z,5.05
2023-05-09T06:17:46.973Z,5.25
2023-05-09T06:20:13.408Z,5.30
2023-05-09T06:22:39.852Z,5.07
2023-05-09T06:25:08.665Z,5.18
2023-05-09T06:27:36.689Z,5.03
2023-05-09T06:30:14.164Z,4.75
2023-05-09T06:32:49.690Z,4.47
2023-05-09T06:35:16.325Z,5.10
2023-05-09T06:37:43.309Z,5.25
2023-05-09T06:40:09.995Z,5.20
2023-05-09T06:42:36.440Z,5.18
2023-05-09T06:45:03.275Z,4.78
2023-05-09T06:47:29.766Z,5.07
2023-05-09T06:49:56.201Z,4.93
2023-05-09T06:52:22.728Z,4.63
2023-05-09T06:54:49.130Z,4.78
2023-05-09T06:57:15.867Z,4.78
2023-05-09T06:59:42.304Z,4.47
2023-05-09T07:02:08.726Z,4.90
2023-05-09T07:04:35.247Z,4.60
2023-05-09T07:07:01.778Z,5.25
2023-05-09T07:09:28.739Z,4.38
2023-05-09T07:11:55.573Z,4.65
2023-05-09T07:14:22.316Z,4.05
2023-05-09T07:16:48.780Z,4.70
2023-05-09T07:19:15.358Z,4.40
2023-05-09T07:21:41.774Z,5.25
2023-05-09T07:24:08.269Z,4.90
2023-05-09T07:26:37.731Z,4.45
2023-05-09T07:29:04.191Z,4.60
2023-05-09T07:31:31.002Z,4.72
2023-05-09T07:33:57.594Z,4.10
2023-05-09T07:36:24.013Z,4.20
2023-05-09T07:38:52.648Z,4.32
2023-05-09T07:41:19.424Z,4.30
2023-05-09T07:43:45.894Z,4.53
2023-05-09T07:46:12.459Z,4.38
2023-05-09T07:48:39.152Z,4.40
2023-05-09T07:51:05.702Z,4.35
2023-05-09T07:53:32.166Z,4.15
2023-05-09T07:55:58.959Z,4.43
2023-05-09T07:58:25.666Z,4.35
2023-05-09T08:00:52.063Z,4.13
2023-05-09T08:03:20.737Z,4.18
2023-05-09T08:05:47.296Z,3.78
2023-05-09T08:08:13.737Z,4.40
2023-05-09T08:10:40.167Z,4.22
2023-05-09T08:13:06.620Z,4.38
2023-05-09T08:15:33.153Z,4.50
2023-05-09T08:17:59.732Z,4.40
2023-05-09T08:20:26.262Z,4.40
2023-05-09T08:22:52.693Z,4.13
2023-05-09T08:25:20.722Z,3.88
2023-05-09T08:27:47.203Z,3.78
2023-05-09T08:30:14.213Z,3.97
2023-05-09T08:32:41.241Z,3.83
2023-05-09T08:35:08.973Z,3.95
2023-05-09T08:37:38.530Z,4.30
2023-05-09T08:40:08.571Z,3.95
2023-05-09T08:42:37.486Z,4.25
2023-05-09T08:45:11.366Z,4.00
2023-05-09T08:47:38.718Z,3.58
2023-05-09T08:50:06.395Z,4.22
2023-05-09T08:52:33.877Z,3.67
2023-05-09T08:55:07.296Z,3.75
2023-05-09T08:57:37.134Z,4.40
2023-05-09T09:00:07.612Z,4.00
2023-05-09T09:02:35.447Z,3.63
2023-05-09T09:05:02.917Z,3.95
2023-05-09T09:07:31.248Z,3.83
2023-05-09T09:09:58.722Z,3.90
2023-05-09T09:12:26.120Z,3.50
2023-05-09T09:14:55.115Z,3.63
2023-05-09T09:17:28.031Z,3.25
2023-05-09T09:19:58.992Z,3.67
2023-05-09T09:22:33.844Z,3.80
2023-05-09T09:25:01.635Z,3.50
2023-05-09T09:27:28.356Z,3.58
2023-05-09T09:29:54.869Z,4.05
2023-05-09T09:32:32.927Z,3.72
2023-05-09T09:35:10.730Z,3.92
2023-05-09T09:37:43.544Z,3.60
2023-05-09T09:40:11.699Z,3.28
2023-05-09T09:42:43.543Z,3.47
2023-05-09T09:45:15.275Z,3.42
2023-05-09T09:47:44.531Z,3.30
2023-05-09T09:50:15.906Z,3.47
2023-05-09T09:52:50.419Z,3.50
2023-05-09T09:55:21.190Z,3.47
2023-05-09T09:57:48.311Z,3.80
2023-05-09T10:00:17.570Z,3.67
2023-05-09T10:02:53.404Z,3.70
2023-05-09T10:05:28.040Z,3.65
2023-05-09T10:08:03.024Z,3.80
2023-05-09T10:10:31.670Z,3.50
2023-05-09T10:13:00.198Z,3.83
2023-05-09T10:15:33.475Z,3.40
2023-05-09T10:18:08.035Z,4.00
2023-05-09T10:20:35.772Z,4.07
2023-05-09T10:23:03.894Z,3.50
2023-05-09T10:25:46.695Z,3.45
2023-05-09T10:28:17.739Z,3.20
2023-05-09T10:30:56.635Z,3.65
2023-05-09T10:33:30.879Z,3.70
2023-05-09T10:38:25.419Z,3.50
2023-05-09T10:40:54.239Z,3.25
2023-05-09T10:43:21.736Z,3.90
2023-05-09T10:45:48.578Z,3.20
2023-05-09T10:48:15.604Z,3.30
2023-05-09T10:50:43.526Z,3.50
2023-05-09T10:53:21.609Z,3.63
2023-05-09T10:55:59.968Z,3.35
2023-05-09T10:58:33.659Z,3.20
2023-05-09T11:01:01.551Z,3.55
2023-05-09T11:03:49.363Z,3.33
2023-05-09T11:06:53.995Z,3.65
2023-05-09T11:09:39.096Z,3.47
2023-05-09T11:12:05.748Z,4.90
2023-05-09T11:14:46.790Z,4.18
2023-05-09T11:17:15.620Z,4.13
2023-05-09T11:19:44.968Z,4.00
2023-05-09T11:22:14.685Z,6.95
2023-05-09T11:24:52.223Z,6.30
2023-05-09T11:27:26.922Z,33.25
2023-05-09T11:29:55.838Z,37.60
2023-05-09T11:32:28.021Z,37.45
2023-05-09T11:35:09.478Z,24.50
2023-05-09T11:37:52.865Z,17.25
2023-05-09T11:40:20.938Z,13.80
2023-05-09T11:42:50.459Z,18.63
2023-05-09T11:45:17.842Z,17.45
2023-05-09T11:47:46.101Z,15.27
2023-05-09T11:50:13.912Z,12.27
2023-05-09T11:52:40.612Z,8.93
2023-05-09T11:55:12.694Z,6.20
2023-05-09T11:57:50.876Z,5.30
2023-05-09T12:00:25.695Z,4.95
2023-05-09T12:02:53.656Z,4.72
2023-05-09T12:05:22.712Z,4.47
2023-05-09T12:07:49.580Z,3.72
2023-05-09T12:10:19.883Z,4.18
2023-05-09T12:12:49.102Z,4.10
2023-05-09T12:15:16.885Z,3.53
2023-05-09T12:17:45.107Z,3.38
2023-05-09T12:20:12.694Z,3.20
2023-05-09T12:22:43.044Z,3.50
2023-05-09T12:25:10.696Z,3.55
2023-05-09T12:27:38.699Z,3.55
2023-05-09T12:30:09.815Z,3.80
2023-05-09T12:32:37.770Z,3.38
2023-05-09T12:35:04.756Z,3.60
2023-05-09T12:37:34.510Z,3.33
2023-05-09T12:40:06.248Z,3.60
2023-05-09T12:42:34.380Z,3.22
2023-05-09T12:45:04.693Z,3.63
2023-05-09T12:47:32.055Z,3.47
2023-05-09T12:49:59.590Z,3.28
2023-05-09T12:52:33.146Z,3.40
2023-05-09T12:55:05.986Z,3.35
2023-05-09T12:57:32.399Z,3.22
2023-05-09T13:00:00.041Z,4.00
2023-05-09T13:02:30.433Z,3.20
2023-05-09T13:05:13.183Z,3.47
2023-05-09T13:07:47.149Z,3.47
2023-05-09T13:10:15.157Z,3.15
2023-05-09T13:12:45.148Z,3.28
2023-05-09T13:15:12.063Z,3.10
2023-05-09T13:17:38.718Z,3.55
2023-05-09T13:20:06.054Z,3.30
2023-05-09T13:22:33.006Z,3.28
2023-05-09T13:24:59.719Z,3.03
2023-05-09T13:27:27.806Z,3.40
2023-05-09T13:29:54.274Z,2.90
2023-05-09T13:32:20.931Z,3.28
2023-05-09T13:34:47.353Z,3.17
2023-05-09T13:37:13.796Z,3.17
2023-05-09T13:39:40.333Z,3.08
2023-05-09T13:42:07.088Z,2.63
2023-05-09T13:44:33.512Z,2.90
2023-05-09T13:47:00.283Z,2.70
2023-05-09T13:49:27.787Z,2.67
2023-05-09T13:51:55.076Z,2.90
2023-05-09T13:54:22.952Z,3.20
2023-05-09T13:56:51.152Z,3.00
2023-05-09T13:59:17.644Z,3.33
2023-05-09T14:01:44.410Z,2.78
2023-05-09T14:04:11.106Z,3.05
2023-05-09T14:06:37.617Z,2.80
2023-05-09T14:09:04.355Z,3.10
2023-05-09T14:11:31.052Z,3.03
2023-05-09T14:13:57.596Z,2.70
2023-05-09T14:16:24.054Z,2.55
2023-05-09T14:18:50.605Z,2.67
2023-05-09T14:21:17.023Z,2.58
2023-05-09T14:23:43.653Z,2.80
2023-05-09T14:26:10.155Z,3.00
2023-05-09T14:28:38.129Z,2.47
2023-05-09T14:31:04.682Z,3.08
2023-05-09T14:33:32.920Z,3.00
2023-05-09T14:36:01.139Z,2.47
2023-05-09T14:38:27.602Z,2.78
2023-05-09T14:40:54.029Z,2.92
2023-05-09T14:43:22.184Z,2.45
2023-05-09T14:45:48.577Z,2.58
2023-05-09T14:48:16.178Z,2.80
2023-05-09T14:50:43.056Z,2.70
2023-05-09T14:53:11.029Z,2.75
2023-05-09T14:55:37.523Z,3.03
2023-05-09T14:58:03.963Z,2.50
2023-05-09T15:00:30.444Z,2.47
2023-05-09T15:02:57.483Z,2.90
2023-05-09T15:05:24.111Z,2.95
2023-05-09T15:07:50.647Z,2.70
2023-05-09T15:10:17.437Z,3.10
2023-05-09T15:12:44.249Z,3.13
2023-05-09T15:15:15.254Z,2.58
2023-05-09T15:17:43.136Z,2.65
2023-05-09T15:20:10.764Z,2.50
2023-05-09T15:22:37.552Z,2.63
2023-05-09T15:25:06.218Z,3.03
2023-05-09T15:27:32.917Z,2.70
2023-05-09T15:29:59.397Z,3.08
2023-05-09T15:32:26.056Z,2.33
2023-05-09T15:34:52.568Z,2.58
2023-05-09T15:37:19.034Z,2.60
2023-05-09T15:39:46.243Z,2.65
2023-05-09T15:42:13.342Z,2.70
2023-05-09T15:44:40.728Z,2.75
2023-05-09T15:47:07.762Z,3.30
2023-05-09T15:49:34.482Z,2.95
2023-05-09T15:52:03.832Z,2.40
2023-05-09T15:54:31.748Z,2.50
2023-05-09T15:56:59.253Z,2.42
2023-05-09T15:59:26.383Z,2.70
2023-05-09T16:01:53.250Z,2.40
2023-05-09T16:04:19.965Z,2.75
2023-05-09T16:06:47.235Z,2.30
2023-05-09T16:09:13.741Z,2.55
2023-05-09T16:11:40.926Z,2.55
2023-05-09T16:14:11.959Z,2.38
2023-05-09T16:16:39.432Z,2.90
2023-05-09T16:19:06.742Z,2.38
2023-05-09T16:21:33.420Z,2.22
2023-05-09T16:24:02.915Z,2.30
2023-05-09T16:26:29.433Z,2.63
2023-05-09T16:28:55.903Z,2.10
2023-05-09T16:31:26.336Z,2.45
2023-05-09T16:33:54.041Z,2.40
2023-05-09T16:36:21.248Z,2.33
2023-05-09T16:38:47.828Z,2.13
2023-05-09T16:41:14.475Z,2.47
2023-05-09T16:43:41.441Z,2.25
2023-05-09T16:46:08.038Z,2.45
2023-05-09T16:48:34.545Z,2.42
2023-05-09T16:51:00.949Z,2.40
2023-05-09T16:53:28.254Z,2.20
2023-05-09T16:55:54.989Z,2.30
2023-05-09T16:58:21.465Z,2.38
2023-05-09T17:00:48.188Z,2.40
2023-05-09T17:03:14.774Z,2.55
2023-05-09T17:05:41.178Z,2.15
2023-05-09T17:08:07.781Z,2.15
2023-05-09T17:10:37.058Z,2.58
2023-05-09T17:13:08.422Z,2.15
2023-05-09T17:15:34.916Z,1.88
2023-05-09T17:18:01.950Z,2.10
2023-05-09T17:20:28.886Z,2.00
2023-05-09T17:22:56.343Z,2.15
2023-05-09T17:25:23.352Z,2.22
2023-05-09T17:27:49.783Z,2.10
2023-05-09T17:30:16.615Z,2.17
2023-05-09T17:32:43.364Z,2.45
2023-05-09T17:35:09.987Z,2.22
2023-05-09T17:37:36.441Z,2.47
2023-05-09T17:40:05.048Z,2.10
2023-05-09T17:42:31.560Z,2.78
2023-05-09T17:44:57.979Z,2.55
2023-05-09T17:47:24.434Z,2.30
2023-05-09T17:49:52.013Z,2.35
2023-05-09T17:52:18.538Z,2.45
2023-05-09T17:54:45.216Z,2.83
2023-05-09T17:57:11.613Z,2.20
2023-05-09T17:59:40.513Z,2.03
2023-05-09T18:02:07.913Z,2.58
2023-05-09T18:04:34.668Z,2.53
2023-05-09T18:07:01.306Z,2.50
2023-05-09T18:09:28.117Z,2.22
2023-05-09T18:11:54.604Z,2.70
2023-05-09T18:14:21.117Z,2.65
2023-05-09T18:16:47.549Z,2.35
2023-05-09T18:19:14.017Z,2.22
2023-05-09T18:21:40.461Z,2.58
2023-05-09T18:24:09.355Z,2.97
2023-05-09T18:26:35.901Z,3.10
2023-05-09T18:29:02.361Z,2.78
2023-05-09T18:31:29.415Z,2.67
2023-05-09T18:33:56.302Z,2.50
2023-05-09T18:36:23.102Z,2.55
2023-05-09T18:38:49.556Z,2.70
2023-05-09T18:41:16.921Z,2.28
2023-05-09T18:43:46.420Z,2.50
2023-05-09T18:46:21.036Z,2.55
2023-05-09T18:48:51.947Z,2.65
2023-05-09T18:51:19.714Z,2.33
2023-05-09T18:53:47.334Z,2.25
2023-05-09T18:56:14.013Z,2.45
2023-05-09T18:58:40.582Z,2.35
2023-05-09T19:01:11.183Z,2.60
2023-05-09T19:03:43.651Z,2.38
2023-05-09T19:06:12.805Z,2.33
2023-05-09T19:08:40.532Z,2.72
2023-05-09T19:11:07.212Z,2.15
2023-05-09T19:13:37.080Z,2.47
2023-05-09T19:16:08.172Z,4.22
2023-05-09T19:18:34.742Z,3.80
2023-05-09T19:21:01.584Z,3.75
2023-05-09T19:23:28.101Z,3.53
2023-05-09T19:25:55.420Z,3.60
2023-05-09T19:28:23.026Z,3.08
2023-05-09T19:30:50.157Z,2.80
2023-05-09T19:33:16.721Z,2.83
2023-05-09T19:35:43.793Z,3.13
2023-05-09T19:38:11.823Z,2.70
2023-05-09T19:40:39.079Z,2.50
2023-05-09T19:43:05.693Z,2.70
2023-05-09T19:45:32.156Z,3.35
2023-05-09T19:47:59.445Z,3.63
2023-05-09T19:50:26.385Z,3.80
2023-05-09T19:52:52.898Z,3.30
2023-05-09T19:55:19.827Z,3.17
2023-05-09T19:57:46.987Z,3.30
2023-05-09T20:00:14.238Z,2.97
2023-05-09T20:02:41.103Z,2.90
2023-05-09T20:05:08.120Z,2.63
2023-05-09T20:07:34.597Z,2.50
2023-05-09T20:10:01.088Z,2.55
2023-05-09T20:12:30.198Z,2.80
2023-05-09T20:14:57.278Z,2.22
2023-05-09T20:17:23.872Z,2.50
2023-05-09T20:19:50.700Z,2.60
2023-05-09T20:22:17.209Z,2.60
2023-05-09T20:24:43.645Z,2.65
2023-05-09T20:27:10.090Z,2.50
2023-05-09T20:29:36.560Z,2.63
2023-05-09T20:32:03.298Z,3.13
2023-05-09T20:34:29.754Z,2.85
2023-05-09T20:36:56.240Z,2.42
2023-05-09T20:39:23.406Z,2.85
2023-05-09T20:41:51.405Z,2.45
2023-05-09T20:44:18.314Z,2.88
2023-05-09T20:46:45.443Z,2.60
2023-05-09T20:49:12.404Z,2.90
2023-05-09T20:51:38.977Z,2.75
2023-05-09T20:54:05.727Z,2.95
2023-05-09T20:56:33.564Z,3.08
2023-05-09T20:59:00.991Z,2.60
2023-05-09T21:01:27.519Z,3.13
2023-05-09T21:03:54.233Z,2.60
2023-05-09T21:06:21.060Z,2.67
2023-05-09T21:08:47.471Z,2.72
2023-05-09T21:11:13.932Z,2.60
2023-05-09T21:13:40.428Z,2.90
2023-05-09T21:16:07.077Z,2.90
2023-05-09T21:18:33.479Z,2.72
2023-05-09T21:21:07.233Z,2.60
2023-05-09T21:23:34.477Z,3.00
2023-05-09T21:26:01.049Z,2.40
2023-05-09T21:28:27.641Z,2.55
2023-05-09T21:30:54.349Z,2.60
2023-05-09T21:33:21.169Z,2.65
2023-05-09T21:35:47.705Z,3.20
2023-05-09T21:38:14.270Z,2.85
2023-05-09T21:40:41.116Z,2.67
2023-05-09T21:43:07.537Z,2.95
2023-05-09T21:45:33.944Z,2.70
2023-05-09T21:48:00.751Z,2.53
2023-05-09T21:50:27.288Z,2.70
2023-05-09T21:52:56.083Z,2.97
2023-05-09T21:55:22.825Z,2.58
2023-05-09T21:57:49.326Z,2.50
2023-05-09T22:00:16.872Z,3.05
2023-05-09T22:02:43.840Z,3.10
2023-05-09T22:05:11.469Z,2.80
2023-05-09T22:07:37.969Z,2.78
2023-05-09T22:10:04.904Z,3.00
2023-05-09T22:12:31.632Z,2.83
2023-05-09T22:14:58.070Z,2.95
2023-05-09T22:17:24.670Z,2.95
2023-05-09T22:19:51.296Z,3.00
2023-05-09T22:22:17.888Z,3.00
2023-05-09T22:24:44.360Z,3.15
2023-05-09T22:27:11.317Z,2.67
2023-05-09T22:29:37.951Z,3.00
2023-05-09T22:32:07.512Z,2.83
2023-05-09T22:34:34.944Z,3.10
2023-05-09T22:37:01.350Z,3.35
2023-05-09T22:39:27.906Z,3.53
2023-05-09T22:41:54.287Z,3.15
2023-05-09T22:44:20.940Z,2.90
2023-05-09T22:46:47.325Z,2.80
2023-05-09T22:49:13.750Z,3.05
2023-05-09T22:51:40.177Z,3.25
2023-05-09T22:54:06.654Z,3.10
2023-05-09T22:56:33.170Z,2.88
2023-05-09T22:58:59.673Z,3.47
2023-05-09T23:01:27.301Z,3.60
2023-05-09T23:03:53.941Z,3.25
2023-05-09T23:06:20.334Z,3.08
2023-05-09T23:08:46.801Z,3.15
2023-05-09T23:11:13.234Z,3.53
2023-05-09T23:13:39.647Z,3.45
2023-05-09T23:16:06.452Z,3.55
2023-05-09T23:18:32.902Z,3.13
2023-05-09T23:20:59.317Z,3.25
2023-05-09T23:23:25.818Z,3.80
2023-05-09T23:25:52.243Z,3.40
2023-05-09T23:28:20.343Z,3.28
2023-05-09T23:30:46.869Z,3.22
2023-05-09T23:33:13.314Z,3.88
2023-05-09T23:35:39.762Z,3.55
2023-05-09T23:38:06.337Z,3.90
2023-05-09T23:40:32.893Z,3.83
2023-05-09T23:42:59.443Z,3.75
2023-05-09T23:45:26.042Z,3.40
2023-05-09T23:47:52.592Z,3.83
2023-05-09T23:50:19.261Z,3.50
2023-05-09T23:52:49.118Z,3.90
2023-05-09T23:55:15.623Z,3.72
2023-05-09T23:57:42.176Z,4.00
